sensor_id;sensor_type;location;lat;lon;timestamp;P1;durP1;ratioP1;P2;durP2;ratioP2
16304;SDS011;8261;47.678;-122.174;2023-04-03T00:02:00;2.03;;;0.50;;
16304;SDS011;8261;47.678;-122.174;2023-04-03T00:04:31;0.53;;;0.33;;
16304;SDS011;8261;47.678;-122.174;2023-04-03T00:07:04;1.40;;;0.40;;
16304;SDS011;8261;47.678;-122.174;2023-04-03T00:09:36;1.10;;;0.33;;
16304;SDS011;8261;47.678;-122.174;2023-04-03T00:12:07;0.70;;;0.30;;
16304;SDS011;8261;47.678;-122.174;2023-04-03T00:14:40;0.80;;;0.30;;
16304;SDS011;8261;47.678;-122.174;2023-04-03T00:17:13;0.20;;;0.20;;
16304;SDS011;8261;47.678;-122.174;2023-04-03T00:19:46;0.57;;;0.30;;
16304;SDS011;8261;47.678;-122.174;2023-04-03T00:22:17;1.30;;;0.60;;
16304;SDS011;8261;47.678;-122.174;2023-04-03T00:24:54;1.10;;;0.50;;
16304;SDS011;8261;47.678;-122.174;2023-04-03T00:27:26;0.40;;;0.40;;
16304;SDS011;8261;47.678;-122.174;2023-04-03T00:29:58;2.77;;;0.57;;
16304;SDS011;8261;47.678;-122.174;2023-04-03T00:32:32;1.13;;;0.40;;
16304;SDS011;8261;47.678;-122.174;2023-04-03T00:35:04;0.80;;;0.50;;
16304;SDS011;8261;47.678;-122.174;2023-04-03T00:37:37;2.10;;;0.60;;
16304;SDS011;8261;47.678;-122.174;2023-04-03T00:40:13;0.60;;;0.40;;
16304;SDS011;8261;47.678;-122.174;2023-04-03T00:42:51;1.00;;;0.57;;
16304;SDS011;8261;47.678;-122.174;2023-04-03T00:45:29;1.50;;;0.50;;
16304;SDS011;8261;47.678;-122.174;2023-04-03T00:48:05;1.27;;;0.50;;
16304;SDS011;8261;47.678;-122.174;2023-04-03T00:50:39;4.93;;;0.70;;
16304;SDS011;8261;47.678;-122.174;2023-04-03T00:53:13;2.00;;;0.70;;
16304;SDS011;8261;47.678;-122.174;2023-04-03T00:55:47;2.90;;;1.00;;
16304;SDS011;8261;47.678;-122.174;2023-04-03T00:58:19;1.63;;;0.53;;
16304;SDS011;8261;47.678;-122.174;2023-04-03T01:00:55;0.83;;;0.70;;
16304;SDS011;8261;47.678;-122.174;2023-04-03T01:03:30;3.20;;;1.07;;
16304;SDS011;8261;47.678;-122.174;2023-04-03T01:06:03;1.83;;;1.00;;
16304;SDS011;8261;47.678;-122.174;2023-04-03T01:08:40;1.50;;;0.60;;
16304;SDS011;8261;47.678;-122.174;2023-04-03T01:11:12;1.57;;;1.00;;
16304;SDS011;8261;47.678;-122.174;2023-04-03T01:13:44;1.40;;;0.77;;
16304;SDS011;8261;47.678;-122.174;2023-04-03T01:16:16;2.30;;;0.90;;
16304;SDS011;8261;47.678;-122.174;2023-04-03T01:18:50;3.73;;;0.80;;
16304;SDS011;8261;47.678;-122.174;2023-04-03T01:24:32;4.30;;;0.97;;
16304;SDS011;8261;47.678;-122.174;2023-04-03T01:27:06;1.50;;;0.80;;
16304;SDS011;8261;47.678;-122.174;2023-04-03T01:29:40;3.57;;;1.10;;
16304;SDS011;8261;47.678;-122.174;2023-04-03T01:32:17;1.30;;;0.70;;
16304;SDS011;8261;47.678;-122.174;2023-04-03T01:34:48;1.03;;;0.83;;
16304;SDS011;8261;47.678;-122.174;2023-04-03T01:37:20;4.60;;;0.93;;
16304;SDS011;8261;47.678;-122.174;2023-04-03T01:39:51;2.67;;;1.00;;
16304;SDS011;8261;47.678;-122.174;2023-04-03T01:42:22;1.93;;;0.90;;
16304;SDS011;8261;47.678;-122.174;2023-04-03T01:44:54;0.83;;;0.60;;
16304;SDS011;8261;47.678;-122.174;2023-04-03T01:47:27;2.77;;;1.20;;
16304;SDS011;8261;47.678;-122.174;2023-04-03T01:49:59;2.30;;;1.17;;
16304;SDS011;8261;47.678;-122.174;2023-04-03T01:52:30;1.50;;;1.20;;
16304;SDS011;8261;47.678;-122.174;2023-04-03T01:55:02;2.50;;;1.77;;
16304;SDS011;8261;47.678;-122.174;2023-04-03T01:57:34;2.33;;;1.50;;
16304;SDS011;8261;47.678;-122.174;2023-04-03T02:00:07;1.53;;;1.00;;
16304;SDS011;8261;47.678;-122.174;2023-04-03T02:02:41;1.63;;;1.20;;
16304;SDS011;8261;47.678;-122.174;2023-04-03T02:05:13;1.70;;;1.30;;
16304;SDS011;8261;47.678;-122.174;2023-04-03T02:07:44;2.47;;;0.90;;
16304;SDS011;8261;47.678;-122.174;2023-04-03T02:10:16;3.03;;;1.23;;
16304;SDS011;8261;47.678;-122.174;2023-04-03T02:12:48;1.93;;;1.10;;
16304;SDS011;8261;47.678;-122.174;2023-04-03T02:15:19;2.63;;;0.90;;
16304;SDS011;8261;47.678;-122.174;2023-04-03T02:17:53;2.17;;;1.00;;
16304;SDS011;8261;47.678;-122.174;2023-04-03T02:20:25;1.90;;;0.90;;
16304;SDS011;8261;47.678;-122.174;2023-04-03T02:22:57;1.83;;;1.23;;
16304;SDS011;8261;47.678;-122.174;2023-04-03T02:25:30;1.30;;;1.13;;
16304;SDS011;8261;47.678;-122.174;2023-04-03T02:28:05;2.73;;;1.50;;
16304;SDS011;8261;47.678;-122.174;2023-04-03T02:30:36;3.77;;;1.23;;
16304;SDS011;8261;47.678;-122.174;2023-04-03T02:33:10;1.77;;;1.50;;
16304;SDS011;8261;47.678;-122.174;2023-04-03T02:35:41;1.90;;;1.30;;
16304;SDS011;8261;47.678;-122.174;2023-04-03T02:38:21;4.50;;;1.73;;
16304;SDS011;8261;47.678;-122.174;2023-04-03T02:40:53;2.40;;;1.70;;
16304;SDS011;8261;47.678;-122.174;2023-04-03T02:43:29;2.20;;;1.47;;
16304;SDS011;8261;47.678;-122.174;2023-04-03T02:46:01;2.27;;;1.50;;
16304;SDS011;8261;47.678;-122.174;2023-04-03T02:48:36;3.33;;;1.70;;
16304;SDS011;8261;47.678;-122.174;2023-04-03T02:51:08;2.33;;;1.40;;
16304;SDS011;8261;47.678;-122.174;2023-04-03T02:53:40;1.43;;;1.33;;
16304;SDS011;8261;47.678;-122.174;2023-04-03T02:56:12;2.60;;;1.30;;
16304;SDS011;8261;47.678;-122.174;2023-04-03T02:58:43;3.30;;;1.20;;
16304;SDS011;8261;47.678;-122.174;2023-04-03T03:01:15;2.37;;;1.33;;
16304;SDS011;8261;47.678;-122.174;2023-04-03T03:03:48;1.97;;;1.40;;
16304;SDS011;8261;47.678;-122.174;2023-04-03T03:06:20;1.63;;;1.17;;
16304;SDS011;8261;47.678;-122.174;2023-04-03T03:08:52;2.37;;;1.60;;
16304;SDS011;8261;47.678;-122.174;2023-04-03T03:11:24;4.53;;;2.40;;
16304;SDS011;8261;47.678;-122.174;2023-04-03T03:13:55;1.30;;;0.90;;
16304;SDS011;8261;47.678;-122.174;2023-04-03T03:16:27;2.00;;;0.87;;
16304;SDS011;8261;47.678;-122.174;2023-04-03T03:19:01;3.53;;;1.33;;
16304;SDS011;8261;47.678;-122.174;2023-04-03T03:21:33;1.43;;;1.27;;
16304;SDS011;8261;47.678;-122.174;2023-04-03T03:24:06;1.60;;;1.20;;
16304;SDS011;8261;47.678;-122.174;2023-04-03T03:26:37;1.50;;;1.40;;
16304;SDS011;8261;47.678;-122.174;2023-04-03T03:29:09;2.07;;;1.40;;
16304;SDS011;8261;47.678;-122.174;2023-04-03T03:31:40;2.33;;;1.23;;
16304;SDS011;8261;47.678;-122.174;2023-04-03T03:34:14;1.20;;;1.10;;
16304;SDS011;8261;47.678;-122.174;2023-04-03T03:36:45;3.20;;;0.97;;
16304;SDS011;8261;47.678;-122.174;2023-04-03T03:39:17;2.67;;;1.27;;
16304;SDS011;8261;47.678;-122.174;2023-04-03T03:41:49;3.13;;;1.20;;
16304;SDS011;8261;47.678;-122.174;2023-04-03T03:44:21;1.30;;;1.10;;
16304;SDS011;8261;47.678;-122.174;2023-04-03T03:46:52;1.00;;;1.00;;
16304;SDS011;8261;47.678;-122.174;2023-04-03T03:49:26;1.40;;;0.90;;
16304;SDS011;8261;47.678;-122.174;2023-04-03T03:51:57;1.03;;;0.90;;
16304;SDS011;8261;47.678;-122.174;2023-04-03T03:54:29;1.33;;;0.70;;
16304;SDS011;8261;47.678;-122.174;2023-04-03T03:57:02;0.80;;;0.80;;
16304;SDS011;8261;47.678;-122.174;2023-04-03T03:59:34;1.13;;;0.70;;
16304;SDS011;8261;47.678;-122.174;2023-04-03T04:02:06;1.70;;;0.80;;
16304;SDS011;8261;47.678;-122.174;2023-04-03T04:04:39;1.23;;;0.80;;
16304;SDS011;8261;47.678;-122.174;2023-04-03T04:07:11;1.47;;;0.67;;
16304;SDS011;8261;47.678;-122.174;2023-04-03T04:09:42;0.70;;;0.60;;
16304;SDS011;8261;47.678;-122.174;2023-04-03T04:12:14;1.23;;;0.90;;
16304;SDS011;8261;47.678;-122.174;2023-04-03T04:14:46;1.33;;;0.80;;
16304;SDS011;8261;47.678;-122.174;2023-04-03T04:17:17;1.50;;;0.87;;
16304;SDS011;8261;47.678;-122.174;2023-04-03T04:19:51;1.90;;;0.67;;
16304;SDS011;8261;47.678;-122.174;2023-04-03T04:22:23;1.03;;;0.80;;
16304;SDS011;8261;47.678;-122.174;2023-04-03T04:24:55;2.53;;;1.07;;
16304;SDS011;8261;47.678;-122.174;2023-04-03T04:27:27;0.80;;;0.80;;
16304;SDS011;8261;47.678;-122.174;2023-04-03T04:29:58;1.77;;;0.80;;
16304;SDS011;8261;47.678;-122.174;2023-04-03T04:32:30;1.77;;;0.87;;
16304;SDS011;8261;47.678;-122.174;2023-04-03T04:35:05;1.40;;;0.90;;
16304;SDS011;8261;47.678;-122.174;2023-04-03T04:37:39;1.63;;;1.10;;
16304;SDS011;8261;47.678;-122.174;2023-04-03T04:40:11;1.00;;;0.90;;
16304;SDS011;8261;47.678;-122.174;2023-04-03T04:42:43;2.80;;;1.20;;
16304;SDS011;8261;47.678;-122.174;2023-04-03T04:45:16;1.27;;;1.17;;
16304;SDS011;8261;47.678;-122.174;2023-04-03T04:47:47;2.13;;;1.47;;
16304;SDS011;8261;47.678;-122.174;2023-04-03T04:50:22;2.17;;;1.13;;
16304;SDS011;8261;47.678;-122.174;2023-04-03T04:52:54;1.50;;;1.00;;
16304;SDS011;8261;47.678;-122.174;2023-04-03T04:55:26;1.07;;;0.97;;
16304;SDS011;8261;47.678;-122.174;2023-04-03T04:57:57;1.03;;;0.90;;
16304;SDS011;8261;47.678;-122.174;2023-04-03T05:00:29;1.13;;;1.00;;
16304;SDS011;8261;47.678;-122.174;2023-04-03T05:03:01;1.97;;;1.10;;
16304;SDS011;8261;47.678;-122.174;2023-04-03T05:05:35;1.60;;;1.07;;
16304;SDS011;8261;47.678;-122.174;2023-04-03T05:08:06;1.10;;;1.00;;
16304;SDS011;8261;47.678;-122.174;2023-04-03T05:10:38;1.67;;;1.23;;
16304;SDS011;8261;47.678;-122.174;2023-04-03T05:13:10;1.30;;;1.20;;
16304;SDS011;8261;47.678;-122.174;2023-04-03T05:15:42;0.87;;;0.87;;
16304;SDS011;8261;47.678;-122.174;2023-04-03T05:18:14;1.57;;;0.87;;
16304;SDS011;8261;47.678;-122.174;2023-04-03T05:20:50;0.60;;;0.50;;
16304;SDS011;8261;47.678;-122.174;2023-04-03T05:23:22;1.57;;;1.00;;
16304;SDS011;8261;47.678;-122.174;2023-04-03T05:25:54;0.70;;;0.70;;
16304;SDS011;8261;47.678;-122.174;2023-04-03T05:28:25;0.93;;;0.80;;
16304;SDS011;8261;47.678;-122.174;2023-04-03T05:30:57;0.80;;;0.80;;
16304;SDS011;8261;47.678;-122.174;2023-04-03T05:33:29;0.70;;;0.70;;
16304;SDS011;8261;47.678;-122.174;2023-04-03T05:36:04;0.80;;;0.80;;
16304;SDS011;8261;47.678;-122.174;2023-04-03T05:38:36;1.20;;;0.70;;
16304;SDS011;8261;47.678;-122.174;2023-04-03T05:41:08;1.23;;;0.90;;
16304;SDS011;8261;47.678;-122.174;2023-04-03T05:43:41;0.73;;;0.73;;
16304;SDS011;8261;47.678;-122.174;2023-04-03T05:46:14;0.80;;;0.80;;
16304;SDS011;8261;47.678;-122.174;2023-04-03T05:48:47;1.20;;;1.03;;
16304;SDS011;8261;47.678;-122.174;2023-04-03T05:51:22;1.33;;;1.07;;
16304;SDS011;8261;47.678;-122.174;2023-04-03T05:53:57;1.10;;;1.00;;
16304;SDS011;8261;47.678;-122.174;2023-04-03T05:56:33;0.90;;;0.90;;
16304;SDS011;8261;47.678;-122.174;2023-04-03T05:59:04;1.57;;;1.00;;
16304;SDS011;8261;47.678;-122.174;2023-04-03T06:01:36;2.47;;;1.30;;
16304;SDS011;8261;47.678;-122.174;2023-04-03T06:04:08;1.10;;;0.90;;
16304;SDS011;8261;47.678;-122.174;2023-04-03T06:06:47;1.53;;;1.10;;
16304;SDS011;8261;47.678;-122.174;2023-04-03T06:09:19;1.03;;;0.93;;
16304;SDS011;8261;47.678;-122.174;2023-04-03T06:11:52;1.23;;;1.13;;
16304;SDS011;8261;47.678;-122.174;2023-04-03T06:14:23;1.13;;;0.90;;
16304;SDS011;8261;47.678;-122.174;2023-04-03T06:16:55;1.20;;;1.10;;
16304;SDS011;8261;47.678;-122.174;2023-04-03T06:19:27;2.47;;;1.47;;
16304;SDS011;8261;47.678;-122.174;2023-04-03T06:22:01;1.93;;;1.40;;
16304;SDS011;8261;47.678;-122.174;2023-04-03T06:24:33;1.30;;;1.20;;
16304;SDS011;8261;47.678;-122.174;2023-04-03T06:27:06;1.53;;;1.07;;
16304;SDS011;8261;47.678;-122.174;2023-04-03T06:29:37;2.47;;;1.83;;
16304;SDS011;8261;47.678;-122.174;2023-04-03T06:32:09;2.07;;;1.53;;
16304;SDS011;8261;47.678;-122.174;2023-04-03T06:34:41;3.03;;;2.50;;
16304;SDS011;8261;47.678;-122.174;2023-04-03T06:37:17;4.00;;;2.37;;
16304;SDS011;8261;47.678;-122.174;2023-04-03T06:39:49;3.07;;;2.40;;
16304;SDS011;8261;47.678;-122.174;2023-04-03T06:42:20;2.40;;;2.20;;
16304;SDS011;8261;47.678;-122.174;2023-04-03T06:44:52;2.40;;;1.47;;
16304;SDS011;8261;47.678;-122.174;2023-04-03T06:47:23;2.30;;;1.90;;
16304;SDS011;8261;47.678;-122.174;2023-04-03T06:49:55;2.27;;;2.07;;
16304;SDS011;8261;47.678;-122.174;2023-04-03T06:52:29;2.00;;;1.80;;
16304;SDS011;8261;47.678;-122.174;2023-04-03T06:55:00;2.63;;;2.13;;
16304;SDS011;8261;47.678;-122.174;2023-04-03T06:57:32;1.83;;;1.67;;
16304;SDS011;8261;47.678;-122.174;2023-04-03T07:00:05;1.50;;;1.37;;
16304;SDS011;8261;47.678;-122.174;2023-04-03T07:02:37;2.00;;;1.30;;
16304;SDS011;8261;47.678;-122.174;2023-04-03T07:05:09;1.93;;;1.70;;
16304;SDS011;8261;47.678;-122.174;2023-04-03T07:07:42;1.70;;;1.60;;
16304;SDS011;8261;47.678;-122.174;2023-04-03T07:10:14;2.07;;;1.83;;
16304;SDS011;8261;47.678;-122.174;2023-04-03T07:12:47;2.23;;;2.03;;
16304;SDS011;8261;47.678;-122.174;2023-04-03T07:15:18;2.07;;;1.90;;
16304;SDS011;8261;47.678;-122.174;2023-04-03T07:17:50;1.77;;;1.67;;
16304;SDS011;8261;47.678;-122.174;2023-04-03T07:20:21;2.27;;;2.10;;
16304;SDS011;8261;47.678;-122.174;2023-04-03T07:22:55;2.13;;;1.83;;
16304;SDS011;8261;47.678;-122.174;2023-04-03T07:25:30;1.93;;;1.70;;
16304;SDS011;8261;47.678;-122.174;2023-04-03T07:28:02;1.97;;;1.50;;
16304;SDS011;8261;47.678;-122.174;2023-04-03T07:30:41;1.40;;;1.30;;
16304;SDS011;8261;47.678;-122.174;2023-04-03T07:33:14;1.33;;;1.23;;
16304;SDS011;8261;47.678;-122.174;2023-04-03T07:35:46;1.33;;;1.10;;
16304;SDS011;8261;47.678;-122.174;2023-04-03T07:38:20;1.30;;;1.20;;
16304;SDS011;8261;47.678;-122.174;2023-04-03T07:40:52;1.30;;;1.20;;
16304;SDS011;8261;47.678;-122.174;2023-04-03T07:43:23;1.70;;;1.60;;
16304;SDS011;8261;47.678;-122.174;2023-04-03T07:45:55;1.33;;;1.23;;
16304;SDS011;8261;47.678;-122.174;2023-04-03T07:48:27;1.43;;;1.33;;
16304;SDS011;8261;47.678;-122.174;2023-04-03T07:50:59;2.23;;;1.37;;
16304;SDS011;8261;47.678;-122.174;2023-04-03T07:53:33;1.80;;;1.40;;
16304;SDS011;8261;47.678;-122.174;2023-04-03T07:56:05;1.50;;;1.40;;
16304;SDS011;8261;47.678;-122.174;2023-04-03T07:58:37;1.50;;;1.40;;
16304;SDS011;8261;47.678;-122.174;2023-04-03T08:01:08;1.53;;;1.37;;
16304;SDS011;8261;47.678;-122.174;2023-04-03T08:03:40;1.67;;;1.50;;
16304;SDS011;8261;47.678;-122.174;2023-04-03T08:06:12;2.03;;;1.93;;
16304;SDS011;8261;47.678;-122.174;2023-04-03T08:08:54;1.70;;;1.60;;
16304;SDS011;8261;47.678;-122.174;2023-04-03T08:11:26;2.07;;;1.80;;
16304;SDS011;8261;47.678;-122.174;2023-04-03T08:13:59;2.33;;;2.13;;
16304;SDS011;8261;47.678;-122.174;2023-04-03T08:16:31;2.20;;;2.00;;
16304;SDS011;8261;47.678;-122.174;2023-04-03T08:19:03;2.77;;;2.57;;
16304;SDS011;8261;47.678;-122.174;2023-04-03T08:21:44;2.73;;;2.50;;
16304;SDS011;8261;47.678;-122.174;2023-04-03T08:24:18;2.30;;;2.10;;
16304;SDS011;8261;47.678;-122.174;2023-04-03T08:26:49;3.00;;;2.30;;
16304;SDS011;8261;47.678;-122.174;2023-04-03T08:29:21;2.60;;;2.40;;
16304;SDS011;8261;47.678;-122.174;2023-04-03T08:31:53;4.03;;;2.03;;
16304;SDS011;8261;47.678;-122.174;2023-04-03T08:34:25;2.53;;;2.33;;
16304;SDS011;8261;47.678;-122.174;2023-04-03T08:36:57;1.70;;;1.60;;
16304;SDS011;8261;47.678;-122.174;2023-04-03T08:39:30;2.13;;;1.80;;
16304;SDS011;8261;47.678;-122.174;2023-04-03T08:42:03;2.07;;;1.87;;
16304;SDS011;8261;47.678;-122.174;2023-04-03T08:44:46;1.80;;;1.70;;
16304;SDS011;8261;47.678;-122.174;2023-04-03T08:47:22;2.20;;;2.00;;
16304;SDS011;8261;47.678;-122.174;2023-04-03T08:50:00;2.20;;;2.00;;
16304;SDS011;8261;47.678;-122.174;2023-04-03T08:52:38;2.13;;;1.93;;
16304;SDS011;8261;47.678;-122.174;2023-04-03T08:55:16;1.80;;;1.70;;
16304;SDS011;8261;47.678;-122.174;2023-04-03T08:57:55;1.60;;;1.50;;
16304;SDS011;8261;47.678;-122.174;2023-04-03T09:00:32;1.50;;;1.40;;
16304;SDS011;8261;47.678;-122.174;2023-04-03T09:03:12;1.40;;;1.30;;
16304;SDS011;8261;47.678;-122.174;2023-04-03T09:05:46;1.13;;;1.03;;
16304;SDS011;8261;47.678;-122.174;2023-04-03T09:08:23;1.20;;;1.10;;
16304;SDS011;8261;47.678;-122.174;2023-04-03T09:11:03;0.97;;;0.97;;
16304;SDS011;8261;47.678;-122.174;2023-04-03T09:13:42;1.17;;;1.10;;
16304;SDS011;8261;47.678;-122.174;2023-04-03T09:16:21;1.10;;;1.00;;
16304;SDS011;8261;47.678;-122.174;2023-04-03T09:19:02;1.07;;;0.90;;
16304;SDS011;8261;47.678;-122.174;2023-04-03T09:21:42;1.37;;;0.70;;
16304;SDS011;8261;47.678;-122.174;2023-04-03T09:24:14;0.80;;;0.80;;
16304;SDS011;8261;47.678;-122.174;2023-04-03T09:26:51;1.10;;;0.70;;
16304;SDS011;8261;47.678;-122.174;2023-04-03T09:29:28;0.70;;;0.60;;
16304;SDS011;8261;47.678;-122.174;2023-04-03T09:32:00;0.80;;;0.50;;
16304;SDS011;8261;47.678;-122.174;2023-04-03T09:34:35;0.83;;;0.60;;
16304;SDS011;8261;47.678;-122.174;2023-04-03T09:37:06;0.70;;;0.70;;
16304;SDS011;8261;47.678;-122.174;2023-04-03T09:39:48;0.77;;;0.77;;
16304;SDS011;8261;47.678;-122.174;2023-04-03T09:42:26;0.73;;;0.70;;
16304;SDS011;8261;47.678;-122.174;2023-04-03T09:45:01;0.70;;;0.70;;
16304;SDS011;8261;47.678;-122.174;2023-04-03T09:47:34;2.00;;;0.70;;
16304;SDS011;8261;47.678;-122.174;2023-04-03T09:50:20;0.60;;;0.60;;
16304;SDS011;8261;47.678;-122.174;2023-04-03T09:52:52;0.80;;;0.80;;
16304;SDS011;8261;47.678;-122.174;2023-04-03T09:55:23;0.80;;;0.80;;
16304;SDS011;8261;47.678;-122.174;2023-04-03T09:57:59;0.93;;;0.70;;
16304;SDS011;8261;47.678;-122.174;2023-04-03T10:00:33;1.00;;;0.80;;
16304;SDS011;8261;47.678;-122.174;2023-04-03T10:03:09;0.83;;;0.80;;
16304;SDS011;8261;47.678;-122.174;2023-04-03T10:05:55;0.80;;;0.60;;
16304;SDS011;8261;47.678;-122.174;2023-04-03T10:08:28;1.20;;;0.70;;
16304;SDS011;8261;47.678;-122.174;2023-04-03T10:11:09;0.90;;;0.77;;
16304;SDS011;8261;47.678;-122.174;2023-04-03T10:13:53;0.60;;;0.60;;
16304;SDS011;8261;47.678;-122.174;2023-04-03T10:16:28;1.07;;;0.60;;
16304;SDS011;8261;47.678;-122.174;2023-04-03T10:19:15;0.80;;;0.80;;
16304;SDS011;8261;47.678;-122.174;2023-04-03T10:22:00;1.70;;;0.87;;
16304;SDS011;8261;47.678;-122.174;2023-04-03T10:24:36;0.70;;;0.70;;
16304;SDS011;8261;47.678;-122.174;2023-04-03T10:27:25;0.70;;;0.70;;
16304;SDS011;8261;47.678;-122.174;2023-04-03T10:30:08;0.60;;;0.60;;
16304;SDS011;8261;47.678;-122.174;2023-04-03T10:32:55;0.90;;;0.80;;
16304;SDS011;8261;47.678;-122.174;2023-04-03T10:35:41;0.57;;;0.57;;
16304;SDS011;8261;47.678;-122.174;2023-04-03T10:38:21;1.77;;;0.67;;
16304;SDS011;8261;47.678;-122.174;2023-04-03T10:41:02;0.60;;;0.53;;
16304;SDS011;8261;47.678;-122.174;2023-04-03T10:43:43;0.60;;;0.50;;
16304;SDS011;8261;47.678;-122.174;2023-04-03T10:46:26;0.60;;;0.50;;
16304;SDS011;8261;47.678;-122.174;2023-04-03T10:49:05;0.50;;;0.50;;
16304;SDS011;8261;47.678;-122.174;2023-04-03T10:51:45;0.50;;;0.50;;
16304;SDS011;8261;47.678;-122.174;2023-04-03T10:54:22;0.90;;;0.50;;
16304;SDS011;8261;47.678;-122.174;2023-04-03T10:56:56;0.63;;;0.60;;
16304;SDS011;8261;47.678;-122.174;2023-04-03T10:59:38;1.70;;;0.70;;
16304;SDS011;8261;47.678;-122.174;2023-04-03T11:02:16;0.70;;;0.70;;
16304;SDS011;8261;47.678;-122.174;2023-04-03T11:04:58;1.23;;;0.60;;
16304;SDS011;8261;47.678;-122.174;2023-04-03T11:07:33;0.70;;;0.50;;
16304;SDS011;8261;47.678;-122.174;2023-04-03T11:10:10;0.73;;;0.70;;
16304;SDS011;8261;47.678;-122.174;2023-04-03T11:12:46;0.40;;;0.40;;
16304;SDS011;8261;47.678;-122.174;2023-04-03T11:15:20;0.63;;;0.40;;
16304;SDS011;8261;47.678;-122.174;2023-04-03T11:17:58;0.53;;;0.40;;
16304;SDS011;8261;47.678;-122.174;2023-04-03T11:20:36;0.50;;;0.40;;
16304;SDS011;8261;47.678;-122.174;2023-04-03T11:23:12;0.77;;;0.30;;
16304;SDS011;8261;47.678;-122.174;2023-04-03T11:25:57;0.73;;;0.50;;
16304;SDS011;8261;47.678;-122.174;2023-04-03T11:28:37;0.60;;;0.60;;
16304;SDS011;8261;47.678;-122.174;2023-04-03T11:31:12;0.30;;;0.30;;
16304;SDS011;8261;47.678;-122.174;2023-04-03T11:33:58;0.73;;;0.43;;
16304;SDS011;8261;47.678;-122.174;2023-04-03T11:36:44;0.40;;;0.40;;
16304;SDS011;8261;47.678;-122.174;2023-04-03T11:39:21;0.63;;;0.30;;
16304;SDS011;8261;47.678;-122.174;2023-04-03T11:41:55;0.40;;;0.40;;
16304;SDS011;8261;47.678;-122.174;2023-04-03T11:44:43;0.30;;;0.30;;
16304;SDS011;8261;47.678;-122.174;2023-04-03T11:47:43;0.40;;;0.40;;
16304;SDS011;8261;47.678;-122.174;2023-04-03T11:59:19;1.97;;;0.50;;
16304;SDS011;8261;47.678;-122.174;2023-04-03T12:01:54;1.40;;;0.63;;
16304;SDS011;8261;47.678;-122.174;2023-04-03T12:04:26;0.83;;;0.70;;
16304;SDS011;8261;47.678;-122.174;2023-04-03T12:07:08;1.37;;;0.70;;
16304;SDS011;8261;47.678;-122.174;2023-04-03T12:12:58;0.97;;;0.70;;
16304;SDS011;8261;47.678;-122.174;2023-04-03T12:24:39;1.50;;;1.03;;
16304;SDS011;8261;47.678;-122.174;2023-04-03T12:27:33;1.20;;;0.80;;
16304;SDS011;8261;47.678;-122.174;2023-04-03T12:30:20;1.10;;;1.03;;
16304;SDS011;8261;47.678;-122.174;2023-04-03T12:33:01;1.57;;;1.20;;
16304;SDS011;8261;47.678;-122.174;2023-04-03T12:35:54;3.07;;;1.30;;
16304;SDS011;8261;47.678;-122.174;2023-04-03T12:41:45;1.20;;;1.10;;
16304;SDS011;8261;47.678;-122.174;2023-04-03T12:44:30;1.47;;;1.37;;
16304;SDS011;8261;47.678;-122.174;2023-04-03T12:47:16;1.60;;;1.50;;
16304;SDS011;8261;47.678;-122.174;2023-04-03T12:50:00;1.50;;;1.40;;
16304;SDS011;8261;47.678;-122.174;2023-04-03T12:52:35;1.60;;;1.50;;
16304;SDS011;8261;47.678;-122.174;2023-04-03T12:55:16;2.53;;;1.30;;
16304;SDS011;8261;47.678;-122.174;2023-04-03T12:57:51;1.63;;;1.47;;
16304;SDS011;8261;47.678;-122.174;2023-04-03T13:00:28;1.90;;;1.30;;
16304;SDS011;8261;47.678;-122.174;2023-04-03T13:03:01;1.60;;;1.40;;
16304;SDS011;8261;47.678;-122.174;2023-04-03T13:05:35;1.87;;;1.30;;
16304;SDS011;8261;47.678;-122.174;2023-04-03T13:08:10;1.67;;;1.57;;
16304;SDS011;8261;47.678;-122.174;2023-04-03T13:10:47;1.47;;;1.30;;
16304;SDS011;8261;47.678;-122.174;2023-04-03T13:13:25;1.63;;;1.53;;
16304;SDS011;8261;47.678;-122.174;2023-04-03T13:15:57;2.13;;;1.67;;
16304;SDS011;8261;47.678;-122.174;2023-04-03T13:18:30;1.77;;;1.67;;
16304;SDS011;8261;47.678;-122.174;2023-04-03T13:21:03;2.23;;;2.03;;
16304;SDS011;8261;47.678;-122.174;2023-04-03T13:23:38;2.30;;;2.10;;
16304;SDS011;8261;47.678;-122.174;2023-04-03T13:26:15;1.97;;;1.83;;
16304;SDS011;8261;47.678;-122.174;2023-04-03T13:28:50;3.83;;;1.87;;
16304;SDS011;8261;47.678;-122.174;2023-04-03T13:31:22;1.70;;;1.57;;
16304;SDS011;8261;47.678;-122.174;2023-04-03T13:33:58;1.60;;;1.50;;
16304;SDS011;8261;47.678;-122.174;2023-04-03T13:36:34;2.30;;;1.90;;
16304;SDS011;8261;47.678;-122.174;2023-04-03T13:39:17;2.00;;;1.90;;
16304;SDS011;8261;47.678;-122.174;2023-04-03T13:41:53;2.57;;;1.80;;
16304;SDS011;8261;47.678;-122.174;2023-04-03T13:44:29;2.93;;;2.20;;
16304;SDS011;8261;47.678;-122.174;2023-04-03T13:47:15;3.37;;;2.47;;
16304;SDS011;8261;47.678;-122.174;2023-04-03T13:50:00;3.60;;;2.50;;
16304;SDS011;8261;47.678;-122.174;2023-04-03T13:52:34;2.73;;;2.50;;
16304;SDS011;8261;47.678;-122.174;2023-04-03T13:55:16;3.00;;;2.50;;
16304;SDS011;8261;47.678;-122.174;2023-04-03T13:57:54;3.03;;;2.57;;
16304;SDS011;8261;47.678;-122.174;2023-04-03T14:00:32;3.20;;;2.97;;
16304;SDS011;8261;47.678;-122.174;2023-04-03T14:03:16;3.00;;;2.70;;
16304;SDS011;8261;47.678;-122.174;2023-04-03T14:05:51;3.87;;;2.83;;
16304;SDS011;8261;47.678;-122.174;2023-04-03T14:08:23;3.13;;;2.83;;
16304;SDS011;8261;47.678;-122.174;2023-04-03T14:11:09;3.57;;;2.97;;
16304;SDS011;8261;47.678;-122.174;2023-04-03T14:13:44;3.60;;;3.30;;
16304;SDS011;8261;47.678;-122.174;2023-04-03T14:16:20;4.27;;;3.10;;
16304;SDS011;8261;47.678;-122.174;2023-04-03T14:18:55;4.23;;;3.33;;
16304;SDS011;8261;47.678;-122.174;2023-04-03T14:21:27;3.70;;;3.40;;
16304;SDS011;8261;47.678;-122.174;2023-04-03T14:23:58;4.40;;;3.30;;
16304;SDS011;8261;47.678;-122.174;2023-04-03T14:26:29;3.90;;;3.50;;
16304;SDS011;8261;47.678;-122.174;2023-04-03T14:29:00;4.20;;;3.60;;
16304;SDS011;8261;47.678;-122.174;2023-04-03T14:31:34;4.10;;;3.70;;
16304;SDS011;8261;47.678;-122.174;2023-04-03T14:34:06;4.73;;;3.37;;
16304;SDS011;8261;47.678;-122.174;2023-04-03T14:36:39;4.50;;;3.57;;
16304;SDS011;8261;47.678;-122.174;2023-04-03T14:39:16;3.53;;;3.23;;
16304;SDS011;8261;47.678;-122.174;2023-04-03T14:41:48;3.67;;;3.37;;
16304;SDS011;8261;47.678;-122.174;2023-04-03T14:44:20;5.30;;;3.93;;
16304;SDS011;8261;47.678;-122.174;2023-04-03T14:46:52;3.97;;;3.60;;
16304;SDS011;8261;47.678;-122.174;2023-04-03T14:49:25;4.37;;;3.97;;
16304;SDS011;8261;47.678;-122.174;2023-04-03T14:52:00;4.37;;;3.77;;
16304;SDS011;8261;47.678;-122.174;2023-04-03T14:54:32;4.33;;;3.93;;
16304;SDS011;8261;47.678;-122.174;2023-04-03T14:57:04;5.57;;;4.83;;
16304;SDS011;8261;47.678;-122.174;2023-04-03T14:59:43;7.60;;;6.80;;
16304;SDS011;8261;47.678;-122.174;2023-04-03T15:02:26;8.77;;;6.73;;
16304;SDS011;8261;47.678;-122.174;2023-04-03T15:05:01;7.77;;;6.97;;
16304;SDS011;8261;47.678;-122.174;2023-04-03T15:07:34;9.57;;;7.20;;
16304;SDS011;8261;47.678;-122.174;2023-04-03T15:10:14;8.53;;;7.47;;
16304;SDS011;8261;47.678;-122.174;2023-04-03T15:18:09;8.67;;;7.67;;
16304;SDS011;8261;47.678;-122.174;2023-04-03T15:20:44;10.20;;;8.40;;
16304;SDS011;8261;47.678;-122.174;2023-04-03T15:23:16;9.10;;;8.20;;
16304;SDS011;8261;47.678;-122.174;2023-04-03T15:25:47;10.33;;;9.27;;
16304;SDS011;8261;47.678;-122.174;2023-04-03T15:28:20;10.00;;;9.00;;
16304;SDS011;8261;47.678;-122.174;2023-04-03T15:30:56;9.70;;;8.07;;
16304;SDS011;8261;47.678;-122.174;2023-04-03T15:33:29;11.27;;;8.00;;
16304;SDS011;8261;47.678;-122.174;2023-04-03T15:36:12;9.70;;;7.80;;
16304;SDS011;8261;47.678;-122.174;2023-04-03T15:38:48;11.33;;;9.23;;